Time;durP1;ratioP1;P1;durP2;ratioP2;P2;SDS_P1;SDS_P2;PMS_P1;PMS_P2;Temp;Humidity;BMP_temperature;BMP_pressure;BME280_temperature;BME280_humidity;BME280_pressure;Samples;Min_cycle;Max_cycle;Signal;HPM_P1;HPM_P2
2024/02/22 00:00:06;;;;;;;5.70;5.20;;;9.00;99.90;;;;;;5044840;28;20435;-67
2024/02/22 00:02:32;;;;;;;6.00;5.50;;;9.10;99.90;;;;;;5062682;28;20351;-67
2024/02/22 00:04:57;;;;;;;5.47;4.97;;;9.10;99.90;;;;;;5044060;28;20052;-67
2024/02/22 00:07:23;;;;;;;6.03;5.53;;;9.10;99.90;;;;;;5064772;28;20041;-67
2024/02/22 00:09:49;;;;;;;5.88;5.32;;;9.10;99.90;;;;;;5064400;28;20587;-67
2024/02/22 00:12:14;;;;;;;6.07;5.60;;;9.10;99.90;;;;;;5066021;28;20036;-67
2024/02/22 00:14:40;;;;;;;5.60;5.20;;;9.10;99.90;;;;;;5043355;28;20040;-67
2024/02/22 00:17:06;;;;;;;5.95;5.45;;;9.10;99.90;;;;;;5063546;28;20509;-67
2024/02/22 00:19:31;;;;;;;5.53;5.07;;;9.10;99.90;;;;;;5043670;28;20040;-67
2024/02/22 00:21:59;;;;;;;5.80;5.38;;;9.10;99.90;;;;;;5063529;28;20036;-67
2024/02/22 00:24:24;;;;;;;6.07;5.65;;;9.20;99.90;;;;;;5045651;28;20044;-67
2024/02/22 00:26:50;;;;;;;6.25;5.70;;;9.20;99.90;;;;;;5064865;28;20044;-67
2024/02/22 00:29:15;;;;;;;6.00;5.50;;;9.20;99.90;;;;;;5044516;28;20049;-67
2024/02/22 00:31:41;;;;;;;5.88;5.47;;;9.20;99.90;;;;;;5046103;28;20043;-67
2024/02/22 00:34:06;;;;;;;6.38;5.88;;;9.20;99.90;;;;;;5044861;28;20505;-67
2024/02/22 00:36:44;;;;;;;6.25;5.75;;;9.20;99.90;;;;;;5062553;28;20086;-67
2024/02/22 00:39:10;;;;;;;6.63;6.13;;;9.20;99.90;;;;;;5046891;28;20087;-68
2024/02/22 00:41:39;;;;;;;6.43;5.82;;;9.20;99.90;;;;;;5064518;28;20036;-67
2024/02/22 00:44:05;;;;;;;6.20;5.70;;;9.20;99.90;;;;;;5042926;28;20095;-67
2024/02/22 00:46:31;;;;;;;6.55;5.78;;;9.20;99.90;;;;;;5043570;28;20072;-67
2024/02/22 00:48:56;;;;;;;7.40;6.65;;;9.30;99.90;;;;;;5042411;28;20045;-68
2024/02/22 00:51:22;;;;;;;6.82;6.22;;;9.30;99.90;;;;;;5045298;28;20032;-67
2024/02/22 00:53:47;;;;;;;6.85;6.25;;;9.20;99.90;;;;;;5044256;28;20043;-67
2024/02/22 00:56:15;;;;;;;7.40;6.80;;;9.30;99.90;;;;;;5046182;28;21453;-67
2024/02/22 00:58:40;;;;;;;7.18;6.57;;;9.30;99.90;;;;;;5048190;28;20032;-67
2024/02/22 01:01:07;;;;;;;7.43;6.72;;;9.30;99.90;;;;;;5046328;28;20057;-68
2024/02/22 01:03:33;;;;;;;7.00;6.40;;;9.30;99.90;;;;;;5029360;28;20045;-67
2024/02/22 01:05:58;;;;;;;6.30;5.80;;;9.30;99.90;;;;;;5051679;28;20056;-67
2024/02/22 01:08:24;;;;;;;6.50;5.90;;;9.40;99.90;;;;;;5042700;28;20040;-67
2024/02/22 01:10:49;;;;;;;6.85;6.25;;;9.60;99.90;;;;;;5043860;28;20037;-67
2024/02/22 01:13:15;;;;;;;6.47;5.88;;;9.60;99.90;;;;;;5046710;28;20037;-67
2024/02/22 01:15:42;;;;;;;7.00;6.40;;;9.40;99.90;;;;;;5050087;28;20111;-67
2024/02/22 01:18:07;;;;;;;6.85;6.25;;;9.40;99.90;;;;;;5060786;28;20040;-67
2024/02/22 01:20:33;;;;;;;7.72;7.00;;;9.40;99.90;;;;;;5049832;28;20047;-67
2024/02/22 01:23:00;;;;;;;7.30;6.60;;;9.40;99.90;;;;;;5043829;28;20078;-67
2024/02/22 01:25:27;;;;;;;7.43;6.72;;;9.40;99.90;;;;;;5062663;28;20521;-67
2024/02/22 01:27:53;;;;;;;7.60;6.93;;;9.40;99.90;;;;;;5042171;28;20048;-67
2024/02/22 01:30:19;;;;;;;7.90;7.10;;;9.70;99.90;;;;;;5044921;28;20178;-67
2024/02/22 01:32:44;;;;;;;7.35;6.65;;;9.50;99.90;;;;;;5040566;28;20107;-67
2024/02/22 01:35:10;;;;;;;7.50;6.70;;;9.40;99.90;;;;;;5059573;28;20025;-67
2024/02/22 01:37:36;;;;;;;7.75;7.00;;;9.50;99.90;;;;;;5050151;28;20059;-67
2024/02/22 01:40:02;;;;;;;8.18;7.38;;;9.50;99.90;;;;;;5040458;28;20417;-67
2024/02/22 01:42:28;;;;;;;7.35;6.65;;;9.50;99.90;;;;;;5029991;28;20040;-67
2024/02/22 01:44:54;;;;;;;7.13;6.43;;;9.50;99.90;;;;;;5044662;28;20039;-67
2024/02/22 01:47:19;;;;;;;7.50;6.80;;;9.50;99.90;;;;;;5043587;28;20052;-67
2024/02/22 01:49:45;;;;;;;7.65;6.93;;;9.50;99.90;;;;;;5041294;28;20040;-67
2024/02/22 01:52:11;;;;;;;7.72;6.93;;;9.50;99.90;;;;;;5051088;28;20029;-67
2024/02/22 01:54:37;;;;;;;8.23;7.43;;;9.80;99.90;;;;;;5047470;28;20474;-67
2024/02/22 01:57:04;;;;;;;7.72;7.03;;;9.50;99.90;;;;;;5049104;28;20042;-67
2024/02/22 01:59:31;;;;;;;8.60;7.32;;;9.50;99.90;;;;;;5046960;28;20040;-67
2024/02/22 02:01:58;;;;;;;9.10;7.53;;;9.60;99.90;;;;;;5062462;28;20084;-67
2024/02/22 02:04:25;;;;;;;8.45;7.55;;;9.50;99.90;;;;;;5061340;28;20479;-67
2024/02/22 02:06:50;;;;;;;8.15;7.30;;;9.60;99.90;;;;;;5049675;28;20452;-68
2024/02/22 02:09:16;;;;;;;8.13;7.00;;;9.60;99.90;;;;;;5060304;28;20069;-67
2024/02/22 02:11:44;;;;;;;8.93;8.02;;;9.60;99.90;;;;;;5045656;28;20032;-67
2024/02/22 02:14:09;;;;;;;8.63;7.57;;;9.60;99.90;;;;;;5059090;28;20411;-67
2024/02/22 02:16:35;;;;;;;8.27;6.97;;;9.60;99.90;;;;;;5060176;28;20033;-67
2024/02/22 02:19:01;;;;;;;9.15;7.50;;;9.70;99.90;;;;;;5042823;28;20057;-67
2024/02/22 02:21:32;;;;;;;9.35;7.00;;;9.60;99.90;;;;;;5041520;28;20100;-67
2024/02/22 02:24:12;;;;;;;8.98;7.15;;;9.60;99.90;;;;;;5042012;28;20164;-67
2024/02/22 02:26:38;;;;;;;7.60;6.53;;;9.60;99.90;;;;;;5064593;28;20039;-67
2024/02/22 02:29:04;;;;;;;8.20;6.88;;;9.60;99.90;;;;;;5043963;28;20479;-67
2024/02/22 02:31:29;;;;;;;9.60;7.05;;;9.60;99.90;;;;;;5036720;28;20044;-67
2024/02/22 02:33:55;;;;;;;9.85;7.32;;;9.60;99.90;;;;;;5061648;28;20044;-67
2024/02/22 02:36:21;;;;;;;9.90;7.50;;;9.60;99.90;;;;;;5039210;28;20048;-67
2024/02/22 02:38:46;;;;;;;9.88;7.45;;;9.60;99.90;;;;;;5048604;28;20943;-67
2024/02/22 02:41:12;;;;;;;8.55;6.43;;;9.60;99.90;;;;;;5045296;28;20039;-67
2024/02/22 02:43:37;;;;;;;8.57;7.00;;;9.70;99.90;;;;;;5042720;28;20048;-67
2024/02/22 02:46:03;;;;;;;8.90;6.75;;;9.60;99.90;;;;;;5045542;28;20047;-67
2024/02/22 02:48:29;;;;;;;7.10;5.72;;;9.70;99.90;;;;;;5062826;28;20036;-67
2024/02/22 02:50:55;;;;;;;9.38;6.95;;;9.70;99.90;;;;;;5043267;28;20047;-67
2024/02/22 02:53:22;;;;;;;9.48;7.07;;;9.70;99.90;;;;;;5064164;28;20052;-67
2024/02/22 02:55:47;;;;;;;8.40;6.25;;;9.70;99.90;;;;;;5046916;28;20043;-67
2024/02/22 02:58:13;;;;;;;10.13;6.78;;;9.70;99.90;;;;;;5065980;28;20375;-67
2024/02/22 03:00:39;;;;;;;8.82;6.53;;;9.70;99.90;;;;;;5047386;28;20147;-68
2024/02/22 03:03:04;;;;;;;9.15;6.28;;;9.70;99.90;;;;;;5048152;28;20046;-67
2024/02/22 03:05:30;;;;;;;9.23;6.50;;;9.70;99.90;;;;;;5045407;28;20044;-67
2024/02/22 03:07:56;;;;;;;9.70;6.78;;;9.70;99.90;;;;;;5064774;28;20135;-67
2024/02/22 03:10:22;;;;;;;10.20;6.75;;;9.70;99.90;;;;;;5044656;28;20043;-67
2024/02/22 03:12:47;;;;;;;10.10;6.40;;;9.70;99.90;;;;;;5047633;28;20048;-67
2024/02/22 03:15:13;;;;;;;8.45;5.90;;;9.70;99.90;;;;;;5053559;28;20041;-67
2024/02/22 03:17:39;;;;;;;9.15;5.93;;;9.70;99.90;;;;;;5062932;28;20059;-67
2024/02/22 03:20:09;;;;;;;8.70;5.97;;;9.80;99.90;;;;;;5030396;28;20078;-67
2024/02/22 03:22:36;;;;;;;9.32;6.20;;;9.70;99.90;;;;;;5045436;28;20051;-67
2024/02/22 03:25:02;;;;;;;9.38;6.38;;;9.70;99.90;;;;;;5045022;28;20128;-67
2024/02/22 03:27:27;;;;;;;8.30;5.57;;;9.70;99.90;;;;;;5044002;28;20135;-67
2024/02/22 03:29:53;;;;;;;9.35;6.00;;;9.70;99.90;;;;;;5052792;28;20098;-67
2024/02/22 03:32:19;;;;;;;10.07;6.20;;;9.80;99.90;;;;;;5067183;28;20047;-67
2024/02/22 03:34:44;;;;;;;9.35;5.88;;;9.70;99.90;;;;;;5047896;28;20048;-67
2024/02/22 03:37:12;;;;;;;8.18;5.43;;;9.70;99.90;;;;;;5043148;28;20119;-67
2024/02/22 03:39:39;;;;;;;9.32;5.90;;;9.80;99.90;;;;;;5056297;28;20484;-67
2024/02/22 03:42:04;;;;;;;8.13;5.50;;;9.70;99.90;;;;;;5064871;28;20033;-67
2024/02/22 03:44:30;;;;;;;8.50;5.47;;;9.70;99.90;;;;;;5051745;28;20548;-67
2024/02/22 03:46:56;;;;;;;8.75;5.38;;;9.70;99.90;;;;;;5052775;28;20043;-67
2024/02/22 03:49:21;;;;;;;9.20;5.40;;;9.70;99.90;;;;;;5063770;28;20045;-67
2024/02/22 03:51:47;;;;;;;9.27;5.75;;;9.70;99.90;;;;;;5049448;28;20044;-67
2024/02/22 03:54:12;;;;;;;10.55;5.75;;;9.70;99.90;;;;;;5065947;28;20123;-67
2024/02/22 03:56:40;;;;;;;7.93;4.53;;;9.80;99.90;;;;;;5046964;28;20536;-67
2024/02/22 03:59:06;;;;;;;8.35;4.97;;;9.80;99.90;;;;;;5041563;28;20048;-67
2024/02/22 04:01:32;;;;;;;8.50;5.10;;;9.80;99.90;;;;;;5043836;28;20144;-67
2024/02/22 04:03:58;;;;;;;8.18;4.97;;;9.80;99.90;;;;;;5065879;28;20043;-67
2024/02/22 04:06:24;;;;;;;7.90;4.82;;;9.80;99.90;;;;;;5063074;28;20033;-67
2024/02/22 04:08:51;;;;;;;7.53;4.32;;;9.80;99.90;;;;;;5042705;28;20076;-67
2024/02/22 04:11:17;;;;;;;7.85;4.55;;;9.80;99.90;;;;;;5046172;28;20491;-67
2024/02/22 04:13:43;;;;;;;8.50;4.75;;;9.80;99.90;;;;;;5045295;28;20089;-67
2024/02/22 04:16:08;;;;;;;7.85;4.50;;;9.80;99.90;;;;;;5062878;28;20044;-67
2024/02/22 04:18:34;;;;;;;7.32;4.43;;;9.80;99.90;;;;;;5044201;28;20075;-67
2024/02/22 04:21:00;;;;;;;7.82;4.78;;;9.80;99.90;;;;;;5048476;28;20048;-67
2024/02/22 04:23:26;;;;;;;6.63;4.20;;;9.80;99.90;;;;;;5045520;28;20041;-68
2024/02/22 04:25:52;;;;;;;7.72;4.30;;;9.80;99.90;;;;;;5061600;28;20395;-67
2024/02/22 04:28:18;;;;;;;6.00;3.92;;;9.90;99.90;;;;;;5049278;28;20137;-67
2024/02/22 04:30:47;;;;;;;6.30;3.85;;;9.90;99.90;;;;;;5042978;28;20037;-67
2024/02/22 04:33:14;;;;;;;6.80;3.80;;;9.80;99.90;;;;;;5060927;28;20041;-67
2024/02/22 04:35:44;;;;;;;6.47;3.95;;;9.90;99.90;;;;;;5063036;28;20055;-67
2024/02/22 04:38:10;;;;;;;6.50;3.42;;;9.80;99.90;;;;;;5043585;28;20506;-67
2024/02/22 04:40:37;;;;;;;8.70;3.58;;;9.90;99.90;;;;;;5046969;28;20437;-67
2024/02/22 04:43:03;;;;;;;6.10;4.05;;;9.80;99.90;;;;;;5046068;28;20044;-67
2024/02/22 04:45:30;;;;;;;7.38;4.07;;;9.90;99.90;;;;;;5065852;28;20056;-67
2024/02/22 04:48:03;;;;;;;8.30;4.65;;;9.90;99.90;;;;;;5045453;28;20099;-67
2024/02/22 04:50:33;;;;;;;7.93;4.50;;;9.90;99.90;;;;;;5043944;28;20474;-68
2024/02/22 04:53:06;;;;;;;9.05;4.65;;;9.90;99.90;;;;;;5044823;28;20037;-67
2024/02/22 04:55:32;;;;;;;8.68;4.65;;;9.90;99.90;;;;;;5045832;28;20044;-67
2024/02/22 04:57:59;;;;;;;7.32;4.85;;;9.90;99.90;;;;;;5045610;28;20045;-67
2024/02/22 05:00:25;;;;;;;10.25;5.68;;;9.90;99.90;;;;;;5042498;28;20048;-67
2024/02/22 05:02:51;;;;;;;10.77;5.57;;;9.90;99.90;;;;;;5041948;28;20044;-67
2024/02/22 05:05:17;;;;;;;10.00;5.50;;;9.90;99.90;;;;;;5046456;28;20071;-67
2024/02/22 05:07:43;;;;;;;10.60;5.20;;;9.90;99.90;;;;;;5045071;28;20119;-67
2024/02/22 05:10:09;;;;;;;8.88;5.60;;;9.90;99.90;;;;;;5043575;28;20395;-67
2024/02/22 05:12:35;;;;;;;7.78;5.93;;;9.90;99.90;;;;;;5045523;28;20044;-68
2024/02/22 05:15:01;;;;;;;12.10;6.85;;;9.90;99.90;;;;;;5046263;28;20047;-68
2024/02/22 05:17:27;;;;;;;15.68;8.68;;;10.00;99.90;;;;;;5042396;28;20040;-68
2024/02/22 05:19:53;;;;;;;19.05;10.82;;;10.00;99.90;;;;;;5058582;28;20036;-67
2024/02/22 05:22:18;;;;;;;23.10;11.50;;;9.90;99.90;;;;;;5062723;28;20450;-67
2024/02/22 05:24:44;;;;;;;34.80;15.65;;;9.90;99.90;;;;;;5059253;28;20037;-67
2024/02/22 05:27:10;;;;;;;43.22;17.33;;;9.90;99.90;;;;;;5047219;28;20076;-67
2024/02/22 05:29:36;;;;;;;46.72;17.92;;;10.00;99.90;;;;;;5049170;28;20048;-67
2024/02/22 05:32:03;;;;;;;44.17;17.75;;;10.20;99.90;;;;;;5043450;28;20033;-67
2024/02/22 05:34:29;;;;;;;53.50;17.83;;;9.90;99.90;;;;;;5057864;28;20442;-67
2024/02/22 05:36:55;;;;;;;53.13;19.45;;;10.00;99.90;;;;;;5048726;28;20028;-67
2024/02/22 05:39:21;;;;;;;44.90;17.70;;;9.90;99.90;;;;;;5042370;28;20094;-67
2024/02/22 05:41:48;;;;;;;48.42;17.08;;;10.00;99.90;;;;;;5045818;28;20047;-67
2024/02/22 05:44:14;;;;;;;47.85;17.17;;;9.90;99.90;;;;;;5076910;28;20056;-67
2024/02/22 05:46:40;;;;;;;35.53;16.05;;;9.90;99.90;;;;;;5044504;28;20041;-67
2024/02/22 05:49:08;;;;;;;52.60;17.45;;;10.00;99.90;;;;;;5042413;28;20129;-67
2024/02/22 05:51:35;;;;;;;48.13;16.48;;;9.90;99.90;;;;;;5044435;28;20451;-67
2024/02/22 05:54:00;;;;;;;48.08;15.88;;;9.90;99.90;;;;;;5062763;28;20127;-67
2024/02/22 05:56:26;;;;;;;45.03;15.15;;;9.90;99.90;;;;;;5076093;28;20127;-68
2024/02/22 05:58:51;;;;;;;41.45;14.27;;;9.90;99.90;;;;;;5049608;28;20047;-67
2024/02/22 06:01:17;;;;;;;45.40;16.20;;;9.90;99.90;;;;;;5061178;28;20101;-67
2024/02/22 06:03:43;;;;;;;41.15;14.20;;;10.00;99.90;;;;;;5059809;28;20045;-67
2024/02/22 06:06:09;;;;;;;44.78;12.80;;;10.00;99.90;;;;;;5044892;28;20368;-67
2024/02/22 06:08:35;;;;;;;37.97;12.77;;;9.90;99.90;;;;;;5061055;28;20051;-67
2024/02/22 06:11:01;;;;;;;28.90;10.88;;;10.00;99.90;;;;;;5042354;28;20502;-67
2024/02/22 06:13:26;;;;;;;39.42;13.35;;;9.90;99.90;;;;;;5062860;28;20386;-67
2024/02/22 06:15:52;;;;;;;42.78;13.48;;;9.90;99.90;;;;;;5039286;28;20040;-67
2024/02/22 06:18:18;;;;;;;40.28;13.52;;;10.00;99.90;;;;;;5041637;28;20502;-67
2024/02/22 06:20:44;;;;;;;42.42;12.38;;;9.90;99.90;;;;;;5039022;28;20041;-67
2024/02/22 06:23:11;;;;;;;41.33;11.35;;;9.90;99.90;;;;;;5041889;28;20105;-67
2024/02/22 06:25:38;;;;;;;32.03;9.60;;;9.90;99.90;;;;;;5059262;28;20060;-67
2024/02/22 06:28:04;;;;;;;32.92;9.07;;;10.00;99.90;;;;;;5039564;28;20040;-67
2024/02/22 06:30:29;;;;;;;32.72;8.98;;;9.90;99.90;;;;;;5061918;28;20498;-67
2024/02/22 06:32:55;;;;;;;29.75;6.50;;;9.80;99.90;;;;;;5062705;28;20033;-67
2024/02/22 06:35:21;;;;;;;33.45;7.78;;;9.90;99.90;;;;;;5061273;28;20120;-67
2024/02/22 06:37:48;;;;;;;35.15;6.85;;;9.80;99.90;;;;;;5044608;28;20064;-67
2024/02/22 06:40:14;;;;;;;26.48;4.72;;;9.80;99.90;;;;;;5044292;28;20044;-67
2024/02/22 06:42:41;;;;;;;24.23;5.15;;;9.80;99.90;;;;;;5066430;28;20056;-67
2024/02/22 06:45:10;;;;;;;27.83;4.85;;;10.00;99.90;;;;;;5060255;28;20076;-67
2024/02/22 06:47:37;;;;;;;27.27;4.35;;;9.80;99.90;;;;;;5063658;28;20044;-67
2024/02/22 06:50:05;;;;;;;23.30;4.15;;;9.80;99.90;;;;;;5059207;28;20437;-67
2024/02/22 06:52:31;;;;;;;27.33;4.78;;;9.80;99.90;;;;;;5042651;28;20223;-67
2024/02/22 06:54:57;;;;;;;27.85;5.13;;;9.80;99.90;;;;;;5046568;28;20590;-67
2024/02/22 06:57:23;;;;;;;25.95;5.20;;;9.80;99.90;;;;;;5062411;28;20044;-67
2024/02/22 06:59:49;;;;;;;22.63;4.60;;;9.80;99.90;;;;;;5024931;28;20048;-67
2024/02/22 07:02:17;;;;;;;22.73;5.38;;;9.80;99.90;;;;;;5047540;28;20492;-67
2024/02/22 07:04:45;;;;;;;22.58;5.78;;;9.90;99.90;;;;;;5056255;28;20044;-67
2024/02/22 07:07:12;;;;;;;19.58;5.22;;;9.80;99.90;;;;;;5044323;28;20066;-67
2024/02/22 07:09:40;;;;;;;23.55;5.78;;;9.80;99.90;;;;;;5040377;28;20478;-67
2024/02/22 07:12:06;;;;;;;19.42;4.80;;;9.80;99.90;;;;;;5057054;28;20033;-67
2024/02/22 07:14:32;;;;;;;20.25;5.10;;;9.80;99.90;;;;;;5038619;28;20081;-67
2024/02/22 07:16:58;;;;;;;20.33;5.43;;;9.80;99.90;;;;;;5057862;28;20059;-67
2024/02/22 07:19:23;;;;;;;19.60;4.85;;;9.80;99.90;;;;;;5038849;28;20163;-67
2024/02/22 07:21:49;;;;;;;22.48;5.20;;;9.80;99.90;;;;;;5040438;28;20051;-68
2024/02/22 07:24:16;;;;;;;26.83;5.97;;;9.80;99.90;;;;;;5040380;28;20045;-67
2024/02/22 07:26:42;;;;;;;19.00;3.75;;;9.80;99.90;;;;;;5041231;28;21659;-67
2024/02/22 07:29:08;;;;;;;23.52;4.18;;;9.70;99.90;;;;;;5042627;28;20045;-67
2024/02/22 07:31:34;;;;;;;17.67;3.75;;;9.70;99.90;;;;;;5041807;28;20028;-67
2024/02/22 07:34:00;;;;;;;20.27;4.60;;;9.60;99.90;;;;;;5050124;28;20101;-67
2024/02/22 07:36:26;;;;;;;22.20;4.00;;;9.70;99.90;;;;;;5060295;28;20386;-67
2024/02/22 07:38:52;;;;;;;20.17;4.03;;;9.70;99.90;;;;;;5044476;28;20032;-67
2024/02/22 07:41:18;;;;;;;15.50;3.25;;;9.80;99.90;;;;;;5058425;28;20062;-67
2024/02/22 07:43:46;;;;;;;15.50;3.20;;;9.90;99.90;;;;;;5059954;28;20052;-67
2024/02/22 07:46:12;;;;;;;22.45;3.92;;;9.90;99.90;;;;;;5061231;28;20076;-67
2024/02/22 07:48:39;;;;;;;20.17;3.42;;;9.90;99.90;;;;;;5059464;28;20045;-67
2024/02/22 07:51:06;;;;;;;21.52;4.47;;;9.90;99.90;;;;;;5032781;28;20483;-67
2024/02/22 07:53:34;;;;;;;18.40;3.00;;;10.00;99.90;;;;;;5054524;28;20393;-67
2024/02/22 07:56:05;;;;;;;22.20;3.92;;;9.90;99.90;;;;;;5055955;28;20123;-67
2024/02/22 07:58:46;;;;;;;18.80;3.65;;;9.90;99.90;;;;;;5057401;28;20040;-67
2024/02/22 08:01:13;;;;;;;18.17;4.05;;;9.80;99.90;;;;;;5040583;28;20106;-67
2024/02/22 08:03:41;;;;;;;19.45;4.03;;;9.70;99.90;;;;;;5058760;28;20040;-67
2024/02/22 08:06:08;;;;;;;23.40;3.88;;;9.80;99.90;;;;;;5059626;28;20041;-67
2024/02/22 08:08:34;;;;;;;24.90;4.57;;;9.70;99.90;;;;;;5039074;28;20052;-67
2024/02/22 08:10:59;;;;;;;21.17;4.60;;;9.70;99.90;;;;;;5057969;28;20037;-67
2024/02/22 08:13:25;;;;;;;19.55;5.10;;;9.70;99.90;;;;;;5060427;28;20367;-67
2024/02/22 08:15:51;;;;;;;23.60;5.97;;;9.80;99.90;;;;;;5038294;28;20044;-67
2024/02/22 08:18:17;;;;;;;24.55;5.22;;;9.80;99.90;;;;;;5058118;28;20040;-67
2024/02/22 08:20:44;;;;;;;26.02;4.88;;;9.90;99.90;;;;;;5036539;28;20454;-67
2024/02/22 08:23:09;;;;;;;33.42;6.53;;;9.90;99.90;;;;;;5057225;28;20037;-67
2024/02/22 08:25:36;;;;;;;27.55;6.05;;;9.90;99.90;;;;;;5037798;28;20041;-67
2024/02/22 08:28:03;;;;;;;22.52;6.05;;;10.00;99.90;;;;;;5056308;28;20529;-67
2024/02/22 08:30:29;;;;;;;27.35;7.10;;;10.00;99.90;;;;;;5040833;28;20040;-67
2024/02/22 08:32:55;;;;;;;29.73;7.28;;;10.10;99.90;;;;;;5038344;28;20682;-67
2024/02/22 08:35:20;;;;;;;25.63;7.60;;;10.20;99.90;;;;;;5039237;28;20045;-68
2024/02/22 08:37:46;;;;;;;20.70;5.30;;;10.10;99.90;;;;;;5059752;28;20128;-67
2024/02/22 08:40:12;;;;;;;19.50;5.10;;;10.10;99.90;;;;;;5060886;28;20472;-67
2024/02/22 08:42:38;;;;;;;27.20;6.20;;;10.20;99.90;;;;;;5037156;28;20128;-68
2024/02/22 08:45:04;;;;;;;24.60;6.07;;;10.20;99.90;;;;;;5057206;28;20082;-67
2024/02/22 08:47:31;;;;;;;21.92;5.78;;;10.20;99.90;;;;;;5057737;28;20756;-67
2024/02/22 08:49:58;;;;;;;22.02;6.70;;;10.20;99.90;;;;;;5035632;28;20056;-68
2024/02/22 08:52:24;;;;;;;27.13;6.38;;;10.10;99.90;;;;;;5056101;28;20045;-68
2024/02/22 08:54:51;;;;;;;22.83;5.65;;;10.20;99.90;;;;;;5058088;28;20483;-68
2024/02/22 08:57:17;;;;;;;22.63;5.47;;;10.20;99.90;;;;;;5059820;28;20449;-69
2024/02/22 08:59:43;;;;;;;19.13;6.07;;;10.30;99.90;;;;;;5056428;28;20123;-68
2024/02/22 09:02:09;;;;;;;20.77;5.28;;;10.30;99.90;;;;;;5038974;28;20041;-69
2024/02/22 09:04:35;;;;;;;20.65;6.68;;;10.40;99.90;;;;;;5038509;28;20055;-70
2024/02/22 09:07:01;;;;;;;21.35;6.45;;;10.40;99.90;;;;;;5058318;28;20090;-69
2024/02/22 09:09:28;;;;;;;25.67;6.68;;;10.40;99.90;;;;;;5032892;28;20053;-69
2024/02/22 09:11:54;;;;;;;28.33;6.95;;;10.40;99.90;;;;;;5040316;28;20052;-68
2024/02/22 09:14:21;;;;;;;29.83;7.80;;;10.60;99.90;;;;;;5060748;28;20032;-68
2024/02/22 09:16:47;;;;;;;21.80;7.80;;;10.50;99.90;;;;;;5037038;28;20047;-68
2024/02/22 09:19:12;;;;;;;22.27;6.97;;;10.90;99.90;;;;;;5058138;28;20048;-68
2024/02/22 09:21:38;;;;;;;20.50;6.22;;;10.50;99.90;;;;;;5036084;28;20127;-68
2024/02/22 09:24:05;;;;;;;25.02;7.43;;;10.50;99.90;;;;;;5058274;28;20036;-68
2024/02/22 09:26:30;;;;;;;22.65;6.75;;;10.50;99.90;;;;;;5042710;28;20048;-67
2024/02/22 09:28:56;;;;;;;22.95;8.98;;;10.70;99.90;;;;;;5069726;28;20052;-67
2024/02/22 09:31:22;;;;;;;17.50;7.50;;;10.80;99.90;;;;;;5026603;28;20490;-67
2024/02/22 09:33:47;;;;;;;27.60;8.57;;;10.80;99.90;;;;;;5054829;28;20394;-66
2024/02/22 09:36:13;;;;;;;23.13;7.60;;;10.80;99.90;;;;;;5041192;28;20394;-66
2024/02/22 09:38:39;;;;;;;20.48;8.05;;;10.70;99.90;;;;;;5037483;28;20506;-67
2024/02/22 09:41:06;;;;;;;17.98;7.30;;;10.60;99.90;;;;;;5056368;28;20074;-66
2024/02/22 09:43:32;;;;;;;21.48;7.78;;;10.60;99.90;;;;;;5055979;28;20522;-66
2024/02/22 09:45:58;;;;;;;24.58;8.10;;;10.50;99.90;;;;;;5026546;28;20051;-66
2024/02/22 09:48:23;;;;;;;21.45;6.97;;;10.60;99.90;;;;;;5058109;28;20041;-67
2024/02/22 09:50:51;;;;;;;25.05;7.82;;;10.50;99.90;;;;;;5056289;28;20044;-67
2024/02/22 09:53:18;;;;;;;24.23;8.40;;;10.50;99.90;;;;;;5056048;28;20041;-67
2024/02/22 09:55:45;;;;;;;16.02;6.72;;;10.50;99.90;;;;;;5055182;28;20040;-66
2024/02/22 09:58:14;;;;;;;21.92;8.50;;;10.50;99.90;;;;;;5037844;28;20086;-66
2024/02/22 10:00:39;;;;;;;22.48;8.05;;;10.60;99.90;;;;;;5038370;28;20056;-66
2024/02/22 10:03:05;;;;;;;27.63;8.10;;;10.70;99.90;;;;;;5039706;28;20140;-66
2024/02/22 10:05:37;;;;;;;20.20;7.55;;;10.70;99.90;;;;;;5037859;28;20041;-66
2024/02/22 10:08:17;;;;;;;22.85;7.80;;;10.70;99.90;;;;;;5037563;28;20044;-66
2024/02/22 10:10:45;;;;;;;20.08;6.78;;;10.70;99.90;;;;;;5040146;28;20132;-66
2024/02/22 10:13:23;;;;;;;20.20;7.60;;;10.80;99.90;;;;;;5032429;28;20156;-66
2024/02/22 10:15:49;;;;;;;23.35;7.63;;;10.80;99.90;;;;;;5062949;28;20548;-67
2024/02/22 10:18:25;;;;;;;22.83;8.50;;;10.90;99.90;;;;;;5058829;28;20048;-66
2024/02/22 10:20:51;;;;;;;19.50;8.57;;;10.90;99.90;;;;;;5040137;28;20091;-66
2024/02/22 10:23:19;;;;;;;22.65;8.68;;;10.80;99.90;;;;;;5038636;28;20482;-67
2024/02/22 10:25:44;;;;;;;21.02;8.23;;;10.80;99.90;;;;;;5058206;28;20064;-66
2024/02/22 10:28:14;;;;;;;26.52;8.52;;;10.90;99.90;;;;;;5040651;28;20391;-66
2024/02/22 10:30:40;;;;;;;20.60;9.18;;;11.00;99.90;;;;;;5038297;28;20094;-67
2024/02/22 10:33:09;;;;;;;16.98;8.45;;;11.00;99.90;;;;;;5040552;28;20036;-67
2024/02/22 10:35:35;;;;;;;22.35;8.13;;;11.10;99.90;;;;;;5061514;28;20037;-66
2024/02/22 10:38:03;;;;;;;16.55;7.88;;;11.30;99.90;;;;;;5041015;28;20111;-66
2024/02/22 10:40:30;;;;;;;15.68;7.80;;;11.40;99.90;;;;;;5059278;28;20418;-67
2024/02/22 10:42:55;;;;;;;21.45;9.10;;;11.50;99.90;;;;;;5060077;28;20048;-67
2024/02/22 10:45:21;;;;;;;13.27;7.38;;;11.50;99.90;;;;;;5041142;28;20032;-67
2024/02/22 10:47:51;;;;;;;18.33;7.90;;;11.60;99.90;;;;;;5063203;28;20086;-66
2024/02/22 10:50:22;;;;;;;17.15;7.85;;;11.70;99.90;;;;;;5043248;28;20041;-67
2024/02/22 10:52:50;;;;;;;16.73;8.18;;;11.80;99.90;;;;;;5041686;28;20041;-66
2024/02/22 10:55:18;;;;;;;13.60;6.95;;;11.70;99.90;;;;;;5041416;28;20040;-67
2024/02/22 10:57:46;;;;;;;16.42;7.93;;;11.70;99.90;;;;;;5061341;28;20056;-67
2024/02/22 11:00:14;;;;;;;12.93;6.97;;;11.90;99.90;;;;;;5039624;28;20123;-67
2024/02/22 11:02:42;;;;;;;14.15;7.88;;;11.90;99.90;;;;;;5043266;28;20072;-67
2024/02/22 11:05:11;;;;;;;12.23;6.82;;;11.90;99.90;;;;;;5044423;28;20054;-67
2024/02/22 11:07:50;;;;;;;9.95;6.55;;;12.00;99.90;;;;;;5061754;28;20574;-67
2024/02/22 11:10:16;;;;;;;10.48;6.82;;;12.10;99.90;;;;;;5060171;28;20068;-66
2024/02/22 11:12:46;;;;;;;10.98;6.55;;;12.10;99.90;;;;;;5042929;28;20071;-66
2024/02/22 11:15:13;;;;;;;10.40;5.93;;;12.00;99.90;;;;;;5065238;28;20487;-66
2024/02/22 11:17:50;;;;;;;9.90;6.25;;;12.00;99.90;;;;;;5041991;28;20037;-67
2024/02/22 11:20:17;;;;;;;9.77;6.30;;;12.10;99.90;;;;;;5043055;28;20380;-66
2024/02/22 11:22:42;;;;;;;10.38;6.28;;;12.10;99.90;;;;;;5048857;28;20036;-66
2024/02/22 11:25:09;;;;;;;9.50;5.72;;;12.10;99.90;;;;;;5068852;28;20037;-66
2024/02/22 11:27:36;;;;;;;9.57;5.13;;;12.20;99.90;;;;;;5048892;28;20645;-66
2024/02/22 11:30:15;;;;;;;10.70;5.72;;;12.20;99.90;;;;;;5043900;28;20418;-66
2024/02/22 11:32:41;;;;;;;7.00;5.00;;;12.50;99.90;;;;;;5063049;28;20537;-66
2024/02/22 11:35:07;;;;;;;6.05;3.88;;;12.70;99.90;;;;;;5045498;28;20044;-66
2024/02/22 11:37:33;;;;;;;5.28;3.80;;;12.80;99.90;;;;;;5043791;28;21434;-66
2024/02/22 11:39:59;;;;;;;7.57;4.57;;;12.70;99.90;;;;;;5039595;28;20041;-66
2024/02/22 11:42:25;;;;;;;5.00;3.20;;;12.60;99.90;;;;;;5065179;28;20082;-66
2024/02/22 11:44:51;;;;;;;3.15;2.45;;;12.50;99.90;;;;;;5060982;28;20067;-66
2024/02/22 11:47:18;;;;;;;4.57;2.30;;;12.40;99.90;;;;;;5045001;28;20056;-66
2024/02/22 11:49:44;;;;;;;3.65;2.42;;;12.30;99.90;;;;;;5061651;28;20040;-66
2024/02/22 11:52:10;;;;;;;3.78;1.77;;;12.30;99.90;;;;;;5066009;28;20029;-66
2024/02/22 11:54:37;;;;;;;3.25;1.45;;;12.20;99.90;;;;;;5043784;28;20104;-66
2024/02/22 11:57:03;;;;;;;2.05;1.30;;;12.00;99.90;;;;;;5046852;28;20087;-66
2024/02/22 11:59:32;;;;;;;1.83;1.00;;;11.90;99.90;;;;;;5062116;28;20136;-66
2024/02/22 12:02:05;;;;;;;2.75;1.15;;;11.80;99.90;;;;;;5044878;28;20047;-66
2024/02/22 12:04:33;;;;;;;1.92;1.05;;;11.70;99.90;;;;;;5044436;28;20040;-66
2024/02/22 12:07:03;;;;;;;2.35;1.10;;;11.70;99.90;;;;;;5065498;28;20040;-66
2024/02/22 12:09:29;;;;;;;1.55;0.90;;;11.70;99.90;;;;;;5045000;28;20532;-66
2024/02/22 12:11:55;;;;;;;1.35;1.00;;;11.60;99.90;;;;;;5063661;28;20024;-66
2024/02/22 12:14:21;;;;;;;1.40;0.90;;;11.60;99.90;;;;;;5062162;28;20029;-66
2024/02/22 12:16:46;;;;;;;1.13;1.02;;;11.60;99.90;;;;;;5060431;28;20040;-66
2024/02/22 12:19:19;;;;;;;1.80;1.27;;;11.70;99.90;;;;;;5060821;28;20044;-66
2024/02/22 12:21:48;;;;;;;1.73;1.23;;;11.60;99.90;;;;;;5048083;28;20048;-66
2024/02/22 12:24:15;;;;;;;1.48;1.13;;;11.60;99.90;;;;;;5045303;28;20091;-66
2024/02/22 12:26:41;;;;;;;1.33;0.90;;;11.60;99.90;;;;;;5046912;28;20126;-66
2024/02/22 12:29:07;;;;;;;3.05;1.08;;;11.40;99.90;;;;;;5066857;28;20047;-66
2024/02/22 12:31:33;;;;;;;1.30;1.05;;;11.50;99.90;;;;;;5043305;28;20700;-66
2024/02/22 12:33:59;;;;;;;1.58;1.48;;;11.50;99.90;;;;;;5061123;28;20036;-66
2024/02/22 12:36:25;;;;;;;1.33;1.17;;;11.80;99.90;;;;;;5062382;28;20037;-66
2024/02/22 12:38:51;;;;;;;1.65;1.55;;;11.50;99.90;;;;;;5060193;28;20105;-66
2024/02/22 12:41:18;;;;;;;2.58;1.60;;;11.60;99.90;;;;;;5045485;28;20074;-66
2024/02/22 12:43:49;;;;;;;1.17;1.08;;;11.60;99.90;;;;;;5063139;28;20139;-66